Koyukuk, AK (99754)

12:34 AM AKST on December 29, 2014 (GMT -0900)
Pitka | Change Station
CLOSE
Current Station
Airport
Location: Galena,
Elevation: 151 ft
Nearby Weather Stations
Active Advisory: Winter Storm Warning

Elev 151 ft 64.74 °N, 156.94 °W | Updated 4 minutes ago

Light Snow
Light Snow Mist
18 °F
Feels Like 3 °F
N
15
Wind Variable Wind from East

Today
High -- | Low -- °F
--% Chance of Precip.
Yesterday
High -- | Low -- °F
Precip. -- in
11:37 AM 3:28 PM
First Quarter, 57% visible
Pressure 30.17 in
Visibility 2.5 miles
Clouds Mostly Cloudy 1400 ft
Overcast 2300 ft
Windchill 3 °F
Dew Point 16 °F
Humidity 93%
Rainfall 0.00 in
Snow Depth Not available.
UV 0 out of 12
Pollen Not available.
Air Quality Not available.
Flu Activity Not available.
SPECI PAGA 290930Z AUTO 10013KT 2 1/2SM -SN BR BKN014 OVC023 M08/M09 A3017 RMK AO2 P0000 FZRANO

More Conditions Fewer Conditions

Pressure 30.17 in
Visibility 2.5 miles
Clouds Mostly Cloudy 1400 ft
Overcast 2300 ft
Windchill 3 °F
Dew Point 16 °F
Humidity 93%
Rainfall 0.00 in
Snow Depth Not available.
UV 0 out of 12
Pollen Not available.
Air Quality Not available.
Flu Activity Not available.
SPECI PAGA 290930Z AUTO 10013KT 2 1/2SM -SN BR BKN014 OVC023 M08/M09 A3017 RMK AO2 P0000 FZRANO

More Conditions Fewer Conditions

10-Day Weather Forecast

Almanac

Astronomy

Dec. 29, 2014 Rise Set
Actual Time
Civil Twilight
Nautical Twilight
Astronomical Twilight
Moon
Length of Visible Light
Length of Day
Tomorrow will be .
, % of the Moon is Illuminated

Today's Extremes

State Highs State Lows

Community

WunderPhotos

Upload Photos

1,781,562 photos uploaded!

WunderBlogs® & News

Nearby

Air Quality

  Air Quality AQ Index Pollutant
Not available.

Snow Depth

Station Depth Elevation

Earthquake Activity

City Distance Mag. Time & Date
Minimum magnitude displayed is 2.5.

Coastal Water Temperatures

Place Temperature

Nearby Weather Stations